createdAt,value
2023-04-11T00:00:56.135Z,8.10
2023-04-11T00:03:23.320Z,8.10
2023-04-11T00:05:50.400Z,8.00
2023-04-11T00:08:17.382Z,8.00
2023-04-11T00:10:45.681Z,8.00
2023-04-11T00:13:12.870Z,8.00
2023-04-11T00:15:39.853Z,8.00
2023-04-11T00:18:07.532Z,8.00
2023-04-11T00:20:34.612Z,8.00
2023-04-11T00:23:01.570Z,8.00
2023-04-11T00:25:30.092Z,8.00
2023-04-11T00:27:57.250Z,8.00
2023-04-11T00:30:24.263Z,8.00
2023-04-11T00:32:51.281Z,7.90
2023-04-11T00:35:18.263Z,8.00
2023-04-11T00:37:45.563Z,7.90
2023-04-11T00:40:17.643Z,7.80
2023-04-11T00:42:44.563Z,7.90
2023-04-11T00:45:12.039Z,7.90
2023-04-11T00:47:39.256Z,7.90
2023-04-11T00:50:07.355Z,7.90
2023-04-11T00:52:36.407Z,7.90
2023-04-11T00:55:04.261Z,8.00
2023-04-11T00:57:32.214Z,8.00
2023-04-11T01:00:01.030Z,8.00
2023-04-11T01:02:28.006Z,7.90
2023-04-11T01:04:56.335Z,8.00
2023-04-11T01:07:24.635Z,7.90
2023-04-11T01:09:52.611Z,8.00
2023-04-11T01:12:21.802Z,7.90
2023-04-11T01:14:49.166Z,7.80
2023-04-11T01:17:16.511Z,7.90
2023-04-11T01:19:43.351Z,8.00
2023-04-11T01:22:12.946Z,8.10
2023-04-11T01:24:39.989Z,8.10
2023-04-11T01:27:06.890Z,8.20
2023-04-11T01:29:33.683Z,8.20
2023-04-11T01:32:00.606Z,8.30
2023-04-11T01:34:28.725Z,8.30
2023-04-11T01:36:55.929Z,8.30
2023-04-11T01:39:22.963Z,8.30
2023-04-11T01:41:50.810Z,8.20
2023-04-11T01:44:19.291Z,8.20
2023-04-11T01:46:46.989Z,8.30
2023-04-11T01:49:18.906Z,8.20
2023-04-11T01:51:45.982Z,8.30
2023-04-11T01:54:12.988Z,8.20
2023-04-11T01:56:39.941Z,8.10
2023-04-11T01:59:06.762Z,8.00
2023-04-11T02:01:34.170Z,8.00
2023-04-11T02:04:01.679Z,8.10
2023-04-11T02:06:28.704Z,8.10
2023-04-11T02:08:55.862Z,8.10
2023-04-11T02:11:22.844Z,8.20
2023-04-11T02:13:49.821Z,8.20
2023-04-11T02:16:18.168Z,8.30
2023-04-11T02:18:46.275Z,8.30
2023-04-11T02:21:13.177Z,8.30
2023-04-11T02:23:40.157Z,8.30
2023-04-11T02:26:07.083Z,8.30
2023-04-11T02:28:34.018Z,8.40
2023-04-11T02:31:00.967Z,8.40
2023-04-11T02:33:27.885Z,8.40
2023-04-11T02:35:54.927Z,8.40
2023-04-11T02:38:21.932Z,8.30
2023-04-11T02:40:48.729Z,8.30
2023-04-11T02:43:16.386Z,8.30
2023-04-11T02:45:43.395Z,8.40
2023-04-11T02:48:10.280Z,8.50
2023-04-11T02:50:37.158Z,8.50
2023-04-11T02:53:03.996Z,8.60
2023-04-11T02:55:30.856Z,8.60
2023-04-11T02:57:58.483Z,8.60
2023-04-11T03:00:26.125Z,8.70
2023-04-11T03:02:53.254Z,8.80
2023-04-11T03:05:20.145Z,8.70
2023-04-11T03:07:46.994Z,8.70
2023-04-11T03:10:13.969Z,8.80
2023-04-11T03:12:40.806Z,9.30
2023-04-11T03:15:08.287Z,9.50
2023-04-11T03:17:35.561Z,9.70
2023-04-11T03:20:02.506Z,9.80
2023-04-11T03:22:29.349Z,9.80
2023-04-11T03:24:56.307Z,9.80
2023-04-11T03:27:23.096Z,9.80
2023-04-11T03:29:49.992Z,9.80
2023-04-11T03:32:16.859Z,9.80
2023-04-11T03:34:43.720Z,9.70
2023-04-11T03:37:10.565Z,9.70
2023-04-11T03:39:37.391Z,9.60
2023-04-11T03:42:04.321Z,9.60
2023-04-11T03:44:31.245Z,9.50
2023-04-11T03:46:58.310Z,9.70
2023-04-11T03:49:25.353Z,9.90
2023-04-11T03:51:52.249Z,10.10
2023-04-11T03:54:19.115Z,10.30
2023-04-11T03:56:46.876Z,10.40
2023-04-11T03:59:13.841Z,10.50
2023-04-11T04:01:40.749Z,10.80
2023-04-11T04:04:07.825Z,10.80
2023-04-11T04:06:35.746Z,10.90
2023-04-11T04:09:04.071Z,11.00
2023-04-11T04:11:31.023Z,10.90
2023-04-11T04:13:58.068Z,10.90
2023-04-11T04:16:25.391Z,10.80
2023-04-11T04:18:52.285Z,10.70
2023-04-11T04:21:19.418Z,10.60
2023-04-11T04:23:48.799Z,10.70
2023-04-11T04:26:24.928Z,10.60
2023-04-11T04:28:53.951Z,10.60
2023-04-11T04:31:25.479Z,10.60
2023-04-11T04:33:52.404Z,10.60
2023-04-11T04:36:19.704Z,10.60
2023-04-11T04:38:47.877Z,10.60
2023-04-11T04:41:22.013Z,10.50
2023-04-11T04:43:48.873Z,10.60
2023-04-11T04:46:16.214Z,10.50
2023-04-11T04:48:43.093Z,10.50
2023-04-11T04:51:09.890Z,10.60
2023-04-11T04:53:38.542Z,10.60
2023-04-11T04:56:06.285Z,10.60
2023-04-11T04:58:33.138Z,10.70
2023-04-11T05:01:02.485Z,10.60
2023-04-11T05:03:34.643Z,10.70
2023-04-11T05:06:02.702Z,10.80
2023-04-11T05:08:29.592Z,10.90
2023-04-11T05:10:56.387Z,11.10
2023-04-11T05:13:23.291Z,11.20
2023-04-11T05:15:51.421Z,11.30
2023-04-11T05:18:18.234Z,11.30
2023-04-11T05:20:45.303Z,11.50
2023-04-11T05:23:12.143Z,11.60
2023-04-11T05:25:38.946Z,11.60
2023-04-11T05:28:06.085Z,11.60
2023-04-11T05:30:32.954Z,11.70
2023-04-11T05:32:59.902Z,11.70
2023-04-11T05:35:26.858Z,11.90
2023-04-11T05:37:53.701Z,11.70
2023-04-11T05:40:20.597Z,11.70
2023-04-11T05:42:47.487Z,11.70
2023-04-11T05:45:14.362Z,11.80
2023-04-11T05:47:41.326Z,11.70
2023-04-11T05:50:08.798Z,11.80
2023-04-11T05:52:35.611Z,11.70
2023-04-11T05:55:02.453Z,11.80
2023-04-11T05:57:29.271Z,11.80
2023-04-11T05:59:56.124Z,11.70
2023-04-11T06:02:23.118Z,11.70
2023-04-11T06:04:50.032Z,11.50
2023-04-11T06:07:18.048Z,11.50
2023-04-11T06:09:45.016Z,11.50
2023-04-11T06:12:11.839Z,11.30
2023-04-11T06:14:40.634Z,11.30
2023-04-11T06:17:07.677Z,11.40
2023-04-11T06:19:34.546Z,11.50
2023-04-11T06:22:01.521Z,11.50
2023-04-11T06:24:39.807Z,11.40
2023-04-11T06:27:10.769Z,11.30
2023-04-11T06:29:38.445Z,11.30
2023-04-11T06:32:06.545Z,11.30
2023-04-11T06:34:34.215Z,11.30
2023-04-11T06:37:01.069Z,11.30
2023-04-11T06:39:27.876Z,11.10
2023-04-11T06:41:54.752Z,11.10
2023-04-11T06:44:21.603Z,11.20
2023-04-11T06:46:48.588Z,11.20
2023-04-11T06:49:17.588Z,11.20
2023-04-11T06:51:50.075Z,11.20
2023-04-11T06:54:18.390Z,11.10
2023-04-11T06:56:45.725Z,11.20
2023-04-11T06:59:12.732Z,11.30
2023-04-11T07:01:40.150Z,11.30
2023-04-11T07:04:08.108Z,11.30
2023-04-11T07:06:35.877Z,11.30
2023-04-11T07:09:04.027Z,11.40
2023-04-11T07:11:31.374Z,11.40
2023-04-11T07:14:02.234Z,11.20
2023-04-11T07:16:29.254Z,11.10
2023-04-11T07:18:56.513Z,11.10
2023-04-11T07:21:23.568Z,11.10
2023-04-11T07:23:50.393Z,11.00
2023-04-11T07:26:17.833Z,11.00
2023-04-11T07:28:45.195Z,11.00
2023-04-11T07:31:13.847Z,10.90
2023-04-11T07:33:43.738Z,10.90
2023-04-11T07:36:11.672Z,10.80
2023-04-11T07:38:38.550Z,10.90
2023-04-11T07:41:05.880Z,11.00
2023-04-11T07:43:33.410Z,11.10
2023-04-11T07:46:00.674Z,11.10
2023-04-11T07:48:29.892Z,11.00
2023-04-11T07:50:56.794Z,11.00
2023-04-11T07:53:23.757Z,11.00
2023-04-11T07:55:50.881Z,10.90
2023-04-11T07:58:17.717Z,10.80
2023-04-11T08:00:44.563Z,10.90
2023-04-11T08:03:13.254Z,10.70
2023-04-11T08:05:40.383Z,10.50
2023-04-11T08:08:07.299Z,10.40
2023-04-11T08:10:34.423Z,10.40
2023-04-11T08:13:01.371Z,10.60
2023-04-11T08:15:28.200Z,10.80
2023-04-11T08:17:56.533Z,11.00
2023-04-11T08:20:24.699Z,11.20
2023-04-11T08:22:51.747Z,11.50
2023-04-11T08:25:24.996Z,11.80
2023-04-11T08:27:52.486Z,11.90
2023-04-11T08:30:20.193Z,12.10
2023-04-11T08:32:47.142Z,12.30
2023-04-11T08:35:14.071Z,12.30
2023-04-11T08:37:41.567Z,12.40
2023-04-11T08:40:09.309Z,12.40
2023-04-11T08:42:36.611Z,12.00
2023-04-11T08:45:08.450Z,12.10
2023-04-11T08:47:37.070Z,12.20
2023-04-11T08:50:06.590Z,12.30
2023-04-11T08:52:34.138Z,12.10
2023-04-11T08:55:01.709Z,12.00
2023-04-11T08:57:33.097Z,12.00
2023-04-11T09:00:13.990Z,11.90
2023-04-11T09:03:12.569Z,11.90
2023-04-11T09:05:44.059Z,12.00
2023-04-11T09:08:13.981Z,12.00
2023-04-11T09:10:45.411Z,11.90
2023-04-11T09:13:22.500Z,11.80
2023-04-11T09:16:13.511Z,11.60
2023-04-11T09:18:44.329Z,11.60
2023-04-11T09:21:15.939Z,11.40
2023-04-11T09:23:43.385Z,11.50
2023-04-11T09:26:25.765Z,11.70
2023-04-11T09:28:53.573Z,11.80
2023-04-11T09:31:21.991Z,11.90
2023-04-11T09:33:56.723Z,12.10
2023-04-11T09:36:27.214Z,11.90
2023-04-11T09:38:54.227Z,11.60
2023-04-11T09:41:36.306Z,11.80
2023-04-11T09:44:03.218Z,11.70
2023-04-11T09:46:30.181Z,11.60
2023-04-11T09:48:57.364Z,11.80
2023-04-11T09:53:55.811Z,12.00
2023-04-11T09:56:24.112Z,12.20
2023-04-11T09:58:51.713Z,12.20
2023-04-11T10:01:20.344Z,12.30
2023-04-11T10:03:51.038Z,12.40
2023-04-11T10:06:35.978Z,12.50
2023-04-11T10:09:11.844Z,12.60
2023-04-11T10:11:46.026Z,12.80
2023-04-11T10:14:37.979Z,12.50
2023-04-11T10:17:20.637Z,12.10
2023-04-11T10:19:51.420Z,12.10
2023-04-11T10:22:58.759Z,11.80
2023-04-11T10:25:25.625Z,11.50
2023-04-11T10:28:04.149Z,11.40
2023-04-11T10:30:40.237Z,11.40
2023-04-11T10:33:16.090Z,11.40
2023-04-11T10:36:09.446Z,11.50
2023-04-11T10:38:48.404Z,11.60
2023-04-11T10:41:25.273Z,11.70
2023-04-11T10:44:25.103Z,12.00
2023-04-11T10:46:54.772Z,12.90
2023-04-11T10:49:39.377Z,14.00
2023-04-11T10:52:23.624Z,14.50
2023-04-11T10:54:54.514Z,14.80
2023-04-11T10:57:22.765Z,15.00
2023-04-11T10:59:49.759Z,14.70
2023-04-11T11:02:17.198Z,14.30
2023-04-11T11:04:44.257Z,14.40
2023-04-11T11:07:16.916Z,14.40
2023-04-11T11:09:51.582Z,14.00
2023-04-11T11:12:18.632Z,13.70
2023-04-11T11:14:47.440Z,13.70
2023-04-11T11:17:16.500Z,13.70
2023-04-11T11:19:45.249Z,13.40
2023-04-11T11:22:25.775Z,13.40
2023-04-11T11:24:53.143Z,13.60
2023-04-11T11:27:25.007Z,13.60
2023-04-11T11:29:52.472Z,13.50
2023-04-11T11:32:26.456Z,13.30
2023-04-11T11:34:53.870Z,13.20
2023-04-11T11:37:21.516Z,13.40
2023-04-11T11:39:49.502Z,13.60
2023-04-11T11:42:16.546Z,13.90
2023-04-11T11:44:43.390Z,14.00
2023-04-11T11:47:14.961Z,13.50
2023-04-11T11:49:56.841Z,13.20
2023-04-11T11:52:35.902Z,13.30
2023-04-11T11:55:06.880Z,13.00
2023-04-11T11:57:37.236Z,13.10
2023-04-11T12:00:10.400Z,12.80
2023-04-11T12:02:38.747Z,12.80
2023-04-11T12:05:07.210Z,12.90
2023-04-11T12:07:38.053Z,13.00
2023-04-11T12:10:13.951Z,12.80
2023-04-11T12:15:36.019Z,12.70
2023-04-11T12:18:06.319Z,13.20
2023-04-11T12:20:33.216Z,13.70
2023-04-11T12:23:00.088Z,13.80
2023-04-11T12:25:28.075Z,13.70
2023-04-11T12:27:54.948Z,13.30
2023-04-11T12:30:21.743Z,13.10
2023-04-11T12:32:48.715Z,13.20
2023-04-11T12:35:15.566Z,13.20
2023-04-11T12:37:42.559Z,13.50
2023-04-11T12:40:12.901Z,13.80
2023-04-11T12:45:11.764Z,14.30
2023-04-11T12:47:39.133Z,14.90
2023-04-11T12:50:09.156Z,14.90
2023-04-11T12:52:36.669Z,15.60
2023-04-11T12:55:04.749Z,16.10
2023-04-11T12:57:31.692Z,16.70
2023-04-11T12:59:59.265Z,16.10
2023-04-11T13:02:27.173Z,16.00
2023-04-11T13:04:55.282Z,16.70
2023-04-11T13:07:22.575Z,17.10
2023-04-11T13:09:50.025Z,16.90
2023-04-11T13:12:17.034Z,17.00
2023-04-11T13:14:43.931Z,16.00
2023-04-11T13:17:10.839Z,15.90
2023-04-11T13:19:37.662Z,16.50
2023-04-11T13:22:04.888Z,19.00
2023-04-11T13:24:32.097Z,20.40
2023-04-11T13:26:59.131Z,19.60
2023-04-11T13:29:26.222Z,19.90
2023-04-11T13:31:53.223Z,19.90
2023-04-11T13:34:20.400Z,19.80
2023-04-11T13:36:47.743Z,20.30
2023-04-11T13:39:14.695Z,20.70
2023-04-11T13:41:41.514Z,21.40
2023-04-11T13:44:08.342Z,21.00
2023-04-11T13:46:35.147Z,22.00
2023-04-11T13:49:01.997Z,21.50
2023-04-11T13:51:28.802Z,22.00
2023-04-11T13:53:55.778Z,21.00
2023-04-11T13:56:23.301Z,19.60
2023-04-11T13:58:50.777Z,18.60
2023-04-11T14:01:21.357Z,18.20
2023-04-11T14:03:49.701Z,17.60
2023-04-11T14:06:19.365Z,17.20
2023-04-11T14:08:47.370Z,17.40
2023-04-11T14:11:15.014Z,17.20
2023-04-11T14:13:41.844Z,17.70
2023-04-11T14:16:09.671Z,19.00
2023-04-11T14:18:36.787Z,20.50
2023-04-11T14:21:08.150Z,21.70
2023-04-11T14:23:35.184Z,22.60
2023-04-11T14:26:02.106Z,21.90
2023-04-11T14:28:28.994Z,20.50
2023-04-11T14:30:56.986Z,19.60
2023-04-11T14:33:24.072Z,18.90
2023-04-11T14:35:51.533Z,17.50
2023-04-11T14:38:18.455Z,17.10
2023-04-11T14:40:45.966Z,16.10
2023-04-11T14:43:13.331Z,15.80
2023-04-11T14:45:40.324Z,15.30
2023-04-11T14:48:07.304Z,15.60
2023-04-11T14:50:34.274Z,18.00
2023-04-11T14:53:01.275Z,20.60
2023-04-11T14:55:28.158Z,22.30
2023-04-11T14:57:56.575Z,22.20
2023-04-11T15:00:24.764Z,21.50
2023-04-11T15:02:54.770Z,21.50
2023-04-11T15:05:23.228Z,22.70
2023-04-11T15:07:52.245Z,24.00
2023-04-11T15:10:22.149Z,24.30
2023-04-11T15:12:49.377Z,24.80
2023-04-11T15:15:16.632Z,24.80
2023-04-11T15:17:49.599Z,23.90
2023-04-11T15:20:17.227Z,22.40
2023-04-11T15:22:46.535Z,21.00
2023-04-11T15:25:17.504Z,21.20
2023-04-11T15:27:44.384Z,21.70
2023-04-11T15:30:11.685Z,22.20
2023-04-11T15:32:44.960Z,21.80
2023-04-11T15:35:12.265Z,20.70
2023-04-11T15:37:39.282Z,19.70
2023-04-11T15:40:07.115Z,18.80
2023-04-11T15:42:35.466Z,18.40
2023-04-11T15:45:03.125Z,17.90
2023-04-11T15:47:30.591Z,17.30
2023-04-11T15:49:59.784Z,16.80
2023-04-11T15:52:27.000Z,16.70
2023-04-11T15:54:53.917Z,16.60
2023-04-11T15:57:20.693Z,16.50
2023-04-11T15:59:48.397Z,16.50
2023-04-11T16:02:15.657Z,16.30
2023-04-11T16:04:45.311Z,16.40
2023-04-11T16:07:14.091Z,16.10
2023-04-11T16:09:40.911Z,16.00
2023-04-11T16:12:07.882Z,15.60
2023-04-11T16:14:34.805Z,15.40
2023-04-11T16:17:01.636Z,14.70
2023-04-11T16:19:28.565Z,14.60
2023-04-11T16:21:55.477Z,14.50
2023-04-11T16:24:22.368Z,14.80
2023-04-11T16:26:49.226Z,14.80
2023-04-11T16:29:16.032Z,15.00
2023-04-11T16:31:42.906Z,14.90
2023-04-11T16:34:09.813Z,14.80
2023-04-11T16:36:36.664Z,14.90
2023-04-11T16:39:04.248Z,15.00
2023-04-11T16:41:36.090Z,14.70
2023-04-11T16:44:11.356Z,14.60
2023-04-11T16:46:41.636Z,14.60
2023-04-11T16:49:09.429Z,14.50
2023-04-11T16:51:37.184Z,14.80
2023-04-11T16:54:09.384Z,14.90
2023-04-11T16:56:37.303Z,15.10
2023-04-11T16:59:05.022Z,14.70
2023-04-11T17:01:32.328Z,14.10
2023-04-11T17:04:01.253Z,13.60
2023-04-11T17:06:28.616Z,13.50
2023-04-11T17:08:57.483Z,13.00
2023-04-11T17:11:25.189Z,12.70
2023-04-11T17:13:54.461Z,12.50
2023-04-11T17:16:21.852Z,12.00
2023-04-11T17:18:48.785Z,11.90
2023-04-11T17:21:17.079Z,11.50
2023-04-11T17:23:44.635Z,11.50
2023-04-11T17:26:12.128Z,11.30
2023-04-11T17:28:40.706Z,11.40
2023-04-11T17:31:16.347Z,11.10
2023-04-11T17:33:43.375Z,11.00
2023-04-11T17:36:12.472Z,11.00
2023-04-11T17:38:42.029Z,10.90
2023-04-11T17:43:38.649Z,10.90
2023-04-11T17:46:05.853Z,10.70
2023-04-11T17:48:32.686Z,10.60
2023-04-11T17:50:59.482Z,10.40
2023-04-11T17:53:26.435Z,10.40
2023-04-11T17:55:54.392Z,10.40
2023-04-11T17:58:21.312Z,10.40
2023-04-11T18:00:56.139Z,10.20
2023-04-11T18:03:23.981Z,10.20
2023-04-11T18:05:52.109Z,10.10
2023-04-11T18:08:18.977Z,9.90
2023-04-11T18:10:46.212Z,9.90
2023-04-11T18:13:13.117Z,9.80
2023-04-11T18:15:40.064Z,9.70
2023-04-11T18:18:09.661Z,9.80
2023-04-11T18:20:36.776Z,9.70
2023-04-11T18:23:03.644Z,9.60
2023-04-11T18:25:30.650Z,9.50
2023-04-11T18:27:58.091Z,9.50
2023-04-11T18:30:25.055Z,9.50
2023-04-11T18:32:53.998Z,9.50
2023-04-11T18:35:21.583Z,9.40
2023-04-11T18:37:48.496Z,9.40
2023-04-11T18:40:15.793Z,9.40
2023-04-11T18:42:49.816Z,9.40
2023-04-11T18:45:20.447Z,9.30
2023-04-11T18:47:47.569Z,9.20
2023-04-11T18:50:15.629Z,9.20
2023-04-11T18:52:44.094Z,9.10
2023-04-11T18:55:11.911Z,9.10
2023-04-11T18:57:39.129Z,9.10
2023-04-11T19:00:19.262Z,9.10
2023-04-11T19:02:48.271Z,9.10
2023-04-11T19:05:16.416Z,8.90
2023-04-11T19:07:45.193Z,8.80
2023-04-11T19:10:12.658Z,8.60
2023-04-11T19:12:40.343Z,8.70
2023-04-11T19:15:09.219Z,8.60
2023-04-11T19:17:38.226Z,8.60
2023-04-11T19:20:13.086Z,8.70
2023-04-11T19:22:41.124Z,8.60
2023-04-11T19:25:12.193Z,8.50
2023-04-11T19:27:41.661Z,8.50
2023-04-11T19:30:10.574Z,8.50
2023-04-11T19:32:43.379Z,8.40
2023-04-11T19:35:11.364Z,8.40
2023-04-11T19:37:38.826Z,8.30
2023-04-11T19:40:07.343Z,8.20
2023-04-11T19:42:37.066Z,8.00
2023-04-11T19:45:05.156Z,7.90
2023-04-11T19:47:32.822Z,7.80
2023-04-11T19:50:00.987Z,8.00
2023-04-11T19:52:28.799Z,7.80
2023-04-11T19:54:56.826Z,7.80
2023-04-11T19:57:26.835Z,7.70
2023-04-11T19:59:53.882Z,7.60
2023-04-11T20:02:21.301Z,7.50
2023-04-11T20:04:49.316Z,7.20
2023-04-11T20:07:16.656Z,7.10
2023-04-11T20:09:43.721Z,7.00
2023-04-11T20:12:10.691Z,7.00
2023-04-11T20:14:38.147Z,7.00
2023-04-11T20:17:08.382Z,7.00
2023-04-11T20:19:37.567Z,6.90
2023-04-11T20:22:04.697Z,6.90
2023-04-11T20:24:31.552Z,6.80
2023-04-11T20:26:58.460Z,6.80
2023-04-11T20:29:32.716Z,6.60
2023-04-11T20:31:59.989Z,6.60
2023-04-11T20:34:26.945Z,6.50
2023-04-11T20:36:53.994Z,6.40
2023-04-11T20:39:20.935Z,6.20
2023-04-11T20:41:49.759Z,6.10
2023-04-11T20:44:21.182Z,6.00
2023-04-11T20:46:48.199Z,6.00
2023-04-11T20:49:17.634Z,5.90
2023-04-11T20:51:45.861Z,5.70
2023-04-11T20:54:12.688Z,5.60
2023-04-11T20:56:39.532Z,5.60
2023-04-11T20:59:07.158Z,5.40
2023-04-11T21:01:34.157Z,5.30
2023-04-11T21:04:04.654Z,5.10
2023-04-11T21:06:32.075Z,5.10
2023-04-11T21:09:00.455Z,5.10
2023-04-11T21:11:27.272Z,5.10
2023-04-11T21:13:54.734Z,5.10
2023-04-11T21:16:22.012Z,5.00
2023-04-11T21:18:49.053Z,5.00
2023-04-11T21:21:15.859Z,5.00
2023-04-11T21:23:43.488Z,5.00
2023-04-11T21:26:10.567Z,5.00
2023-04-11T21:28:37.445Z,4.90
2023-04-11T21:31:04.440Z,4.90
2023-04-11T21:33:31.253Z,4.90
2023-04-11T21:35:58.204Z,4.90
2023-04-11T21:38:25.107Z,4.90
2023-04-11T21:40:52.693Z,4.80
2023-04-11T21:43:19.493Z,4.80
2023-04-11T21:45:46.337Z,4.60
2023-04-11T21:48:13.226Z,4.60
2023-04-11T21:50:40.432Z,4.50
2023-04-11T21:53:07.300Z,4.50
2023-04-11T21:55:34.453Z,4.40
2023-04-11T21:58:01.341Z,4.40
2023-04-11T22:00:28.159Z,4.40
2023-04-11T22:02:55.121Z,4.40
2023-04-11T22:05:22.406Z,4.30
2023-04-11T22:07:50.763Z,4.40
2023-04-11T22:10:22.645Z,4.40
2023-04-11T22:12:50.551Z,4.50
2023-04-11T22:15:18.563Z,4.50
2023-04-11T22:17:50.251Z,4.60
2023-04-11T22:20:18.134Z,4.60
2023-04-11T22:22:45.057Z,4.60
2023-04-11T22:25:11.985Z,4.60
2023-04-11T22:27:38.988Z,4.50
2023-04-11T22:30:07.615Z,4.50
2023-04-11T22:32:34.858Z,4.40
2023-04-11T22:35:01.800Z,4.40
2023-04-11T22:37:28.668Z,4.40
2023-04-11T22:39:55.747Z,4.40
2023-04-11T22:42:22.569Z,4.40
2023-04-11T22:44:49.427Z,4.40
2023-04-11T22:47:16.573Z,4.40
2023-04-11T22:49:44.976Z,4.40
2023-04-11T22:52:15.347Z,4.40
2023-04-11T22:54:43.537Z,4.40
2023-04-11T22:57:10.470Z,4.40
2023-04-11T22:59:37.402Z,4.50
2023-04-11T23:02:04.430Z,4.50
2023-04-11T23:04:32.373Z,4.50
2023-04-11T23:06:59.768Z,4.50
2023-04-11T23:09:28.214Z,4.50
2023-04-11T23:11:55.149Z,4.50
2023-04-11T23:14:22.456Z,4.50
2023-04-11T23:16:49.553Z,4.50
2023-04-11T23:19:18.631Z,4.60
2023-04-11T23:21:45.654Z,4.60
2023-04-11T23:24:12.541Z,4.70
2023-04-11T23:26:39.359Z,4.70
2023-04-11T23:29:06.195Z,4.70
2023-04-11T23:31:33.726Z,4.60
2023-04-11T23:34:00.988Z,4.50
2023-04-11T23:36:29.096Z,4.50
2023-04-11T23:38:56.700Z,4.60
2023-04-11T23:41:23.976Z,4.70
2023-04-11T23:43:51.120Z,4.80
2023-04-11T23:46:18.198Z,4.80
2023-04-11T23:48:47.103Z,4.90
2023-04-11T23:51:15.217Z,4.80
2023-04-11T23:53:48.472Z,4.70
2023-04-11T23:56:15.426Z,4.70
2023-04-11T23:58:42.219Z,4.60
